Decoded Metar for VOCL (CALICUT in INDIA) (IATA:CCJ) | Meteo·Mobile Aviation Weather
aviador You're here:

VOCL Decoded Metar

CALICUT in INDIA
Report Time2018-08-19 05:00:00
UTC Time2018-08-19 05:26:35
Flight Rules mvfr MVFR
Wind230° at 08 kt
W.Decomp.*RWY 28: 5.4 kt HW 5.9 kt LCW
W.Rank230° ranks 18
Current wind is above 230° avg. (5.4)
Visibility5000 m
Phenomena:Mist
Clouds:Few 008 Hf
Scattered 012 Hf
Broken 080 Hf
Expected CloudBase > 1,200 ft AGL from Temp-Dew spread
Ceiling8,000 ft
Temp27°C (ISA +13)
Dew Point24°C (84% RH)
Heat Index30.1°C
QNH1009 hPa
Density Alt2,329 ft
Elevation341 ft
Report Wrong Elevation
Raw Report
METAR VOCL 190500Z 23008KT 5000 BR FEW008 SCT012 BKN080 27/24 Q1009
NOSIG=

Extra information for VOCL:More info

Metar Taf Metar & Taf Last 4 Metars F.Rules Stats Wind Profile Meteogram Temp Stats Airport Information Weather charts Add Link Nearby VenuesMetar ALERT Operation Metar Decoded Social comments